Time;durP1;ratioP1;P1;durP2;ratioP2;P2;SDS_P1;SDS_P2;PMS_P1;PMS_P2;Temp;Humidity;BMP_temperature;BMP_pressure;BME280_temperature;BME280_humidity;BME280_pressure;Samples;Min_cycle;Max_cycle;Signal;HPM_P1;HPM_P2
2023/08/04 00:00:10;;;;;;;10.50;1.85;;;16.10;99.90;;;;;;5068795;28;20047;-66
2023/08/04 00:02:37;;;;;;;10.95;1.60;;;16.10;99.90;;;;;;5067564;28;20423;-70
2023/08/04 00:05:03;;;;;;;6.82;1.42;;;16.10;99.90;;;;;;5068751;28;20092;-66
2023/08/04 00:07:29;;;;;;;8.20;2.08;;;16.10;99.90;;;;;;5068542;28;20484;-67
2023/08/04 00:09:55;;;;;;;6.95;1.90;;;16.10;99.90;;;;;;5068827;28;20052;-67
2023/08/04 00:12:21;;;;;;;8.38;1.95;;;16.10;99.90;;;;;;5067291;28;20097;-68
2023/08/04 00:14:47;;;;;;;6.45;1.70;;;16.00;99.90;;;;;;5060859;28;20356;-68
2023/08/04 00:17:13;;;;;;;6.85;1.65;;;16.00;99.90;;;;;;5068370;28;20052;-70
2023/08/04 00:19:40;;;;;;;9.23;2.00;;;16.00;99.90;;;;;;5067545;28;20043;-71
2023/08/04 00:22:05;;;;;;;8.80;1.60;;;15.90;99.90;;;;;;5068947;28;20400;-66
2023/08/04 00:24:31;;;;;;;4.53;1.40;;;15.90;99.90;;;;;;5068815;28;20052;-69
2023/08/04 00:26:57;;;;;;;6.95;1.77;;;15.90;99.90;;;;;;5068793;28;20036;-67
2023/08/04 00:29:22;;;;;;;4.70;1.35;;;15.80;99.90;;;;;;5067623;28;20055;-69
2023/08/04 00:31:48;;;;;;;4.55;1.05;;;15.90;99.90;;;;;;5068695;28;20052;-67
2023/08/04 00:34:13;;;;;;;6.75;1.30;;;15.80;99.90;;;;;;5068858;28;20048;-66
2023/08/04 00:36:39;;;;;;;9.75;1.50;;;15.80;99.90;;;;;;5067662;28;20048;-65
2023/08/04 00:39:05;;;;;;;4.57;1.30;;;15.80;99.90;;;;;;5070162;28;20067;-66
2023/08/04 00:41:30;;;;;;;6.53;1.77;;;15.80;99.90;;;;;;5072384;28;20364;-66
2023/08/04 00:43:56;;;;;;;3.88;1.30;;;15.80;99.90;;;;;;5072569;28;20052;-67
2023/08/04 00:46:23;;;;;;;7.10;1.70;;;15.80;99.90;;;;;;5071090;28;20047;-65
2023/08/04 00:48:48;;;;;;;4.75;1.15;;;15.80;99.90;;;;;;5072489;28;20040;-66
2023/08/04 00:51:14;;;;;;;4.88;1.42;;;15.80;99.90;;;;;;5072244;28;20052;-67
2023/08/04 00:53:41;;;;;;;6.82;1.50;;;15.70;99.90;;;;;;5070372;28;20107;-67
2023/08/04 00:56:06;;;;;;;5.50;1.50;;;15.70;99.90;;;;;;5072081;28;20037;-68
2023/08/04 00:58:35;;;;;;;5.03;1.67;;;15.80;99.90;;;;;;5072310;28;20051;-67
2023/08/04 01:01:00;;;;;;;10.07;2.75;;;15.70;99.90;;;;;;5072179;28;20044;-67
2023/08/04 01:03:27;;;;;;;7.70;1.38;;;15.80;99.90;;;;;;5072024;28;20067;-67
2023/08/04 01:06:10;;;;;;;5.57;1.40;;;15.70;99.90;;;;;;5072044;28;20072;-67
2023/08/04 01:08:35;;;;;;;5.35;1.60;;;15.70;99.90;;;;;;5071874;28;20044;-67
2023/08/04 01:11:08;;;;;;;4.85;1.25;;;15.60;99.90;;;;;;5071579;28;20080;-67
2023/08/04 01:13:34;;;;;;;5.78;1.50;;;15.70;99.90;;;;;;5071718;28;20036;-66
2023/08/04 01:16:04;;;;;;;5.97;1.30;;;15.70;99.90;;;;;;5071850;28;20028;-69
2023/08/04 01:18:30;;;;;;;18.70;2.42;;;15.70;99.90;;;;;;5071962;28;20459;-66
2023/08/04 01:21:00;;;;;;;6.32;1.45;;;15.60;99.90;;;;;;5072222;28;20044;-66
2023/08/04 01:23:26;;;;;;;6.95;1.40;;;15.60;99.90;;;;;;5071988;28;20037;-67
2023/08/04 01:25:51;;;;;;;7.75;1.52;;;15.60;99.90;;;;;;5070269;28;20090;-66
2023/08/04 01:28:18;;;;;;;4.78;1.45;;;15.60;99.90;;;;;;5072146;28;20040;-67
2023/08/04 01:30:47;;;;;;;9.90;1.75;;;15.60;99.90;;;;;;5071708;28;20040;-66
2023/08/04 01:33:14;;;;;;;7.00;1.63;;;15.60;99.90;;;;;;5071859;28;20063;-66
2023/08/04 01:35:40;;;;;;;4.32;1.10;;;15.60;99.90;;;;;;5071880;28;20040;-67
2023/08/04 01:38:05;;;;;;;3.70;1.30;;;15.60;99.90;;;;;;5071779;28;20487;-67
2023/08/04 01:40:31;;;;;;;4.40;1.20;;;15.60;99.90;;;;;;5071669;28;20127;-67
2023/08/04 01:42:57;;;;;;;6.40;1.30;;;15.60;99.90;;;;;;5071229;28;20048;-66
2023/08/04 01:45:22;;;;;;;7.80;1.33;;;15.60;99.90;;;;;;5071215;28;20052;-66
2023/08/04 01:47:49;;;;;;;6.75;1.27;;;15.60;99.90;;;;;;5070522;28;20060;-66
2023/08/04 01:50:14;;;;;;;4.97;1.80;;;15.60;99.90;;;;;;5071346;28;20544;-66
2023/08/04 01:52:40;;;;;;;5.68;1.88;;;15.60;99.90;;;;;;5071222;28;20060;-66
2023/08/04 01:55:06;;;;;;;7.72;1.60;;;15.60;99.90;;;;;;5071380;28;20105;-67
2023/08/04 01:57:32;;;;;;;5.60;1.45;;;15.60;99.90;;;;;;5069519;28;20048;-67
2023/08/04 01:59:58;;;;;;;9.93;1.67;;;15.60;99.90;;;;;;5071628;28;20556;-66
2023/08/04 02:02:23;;;;;;;6.20;1.30;;;15.70;99.90;;;;;;5070824;28;20049;-67
2023/08/04 02:04:49;;;;;;;15.35;2.10;;;15.60;99.90;;;;;;5069705;28;20052;-67
2023/08/04 02:07:14;;;;;;;8.98;1.90;;;15.60;99.90;;;;;;5071042;28;20101;-67
2023/08/04 02:09:40;;;;;;;4.63;1.15;;;15.50;99.90;;;;;;5071172;28;20406;-66
2023/08/04 02:12:06;;;;;;;6.00;1.30;;;15.60;99.90;;;;;;5070810;28;20051;-66
2023/08/04 02:14:33;;;;;;;7.90;1.67;;;15.50;99.90;;;;;;5069528;28;20103;-66
2023/08/04 02:16:59;;;;;;;5.10;1.10;;;15.60;99.90;;;;;;5071177;28;20044;-67
2023/08/04 02:19:24;;;;;;;5.63;1.10;;;15.50;99.90;;;;;;5070944;28;20119;-67
2023/08/04 02:21:51;;;;;;;4.55;1.10;;;15.50;99.90;;;;;;5070872;28;20040;-67
2023/08/04 02:24:17;;;;;;;6.60;1.10;;;15.50;99.90;;;;;;5069500;28;20052;-67
2023/08/04 02:26:44;;;;;;;5.38;1.15;;;15.50;99.90;;;;;;5070291;28;20052;-66
2023/08/04 02:29:11;;;;;;;4.57;1.35;;;15.50;99.90;;;;;;5070114;28;20094;-67
2023/08/04 02:31:37;;;;;;;4.32;1.00;;;15.50;99.90;;;;;;5070951;28;20044;-67
2023/08/04 02:34:02;;;;;;;5.75;1.20;;;15.50;99.90;;;;;;5070913;28;20044;-68
2023/08/04 02:36:29;;;;;;;8.07;1.50;;;15.40;99.90;;;;;;5070597;28;20040;-67
2023/08/04 02:38:54;;;;;;;2.40;0.80;;;15.50;99.90;;;;;;5070462;28;20071;-69
2023/08/04 02:41:20;;;;;;;5.30;1.08;;;15.50;99.90;;;;;;5070184;28;20033;-67
2023/08/04 02:43:45;;;;;;;7.00;1.20;;;15.50;99.90;;;;;;5069930;28;20044;-68
2023/08/04 02:46:11;;;;;;;4.10;1.00;;;15.50;99.90;;;;;;5070410;28;20711;-67
2023/08/04 02:48:37;;;;;;;5.82;1.23;;;15.50;99.90;;;;;;5070692;28;20078;-67
2023/08/04 02:51:05;;;;;;;3.90;1.10;;;15.50;99.90;;;;;;5070372;28;20479;-68
2023/08/04 02:53:32;;;;;;;3.33;1.20;;;15.50;99.90;;;;;;5070226;28;20044;-69
2023/08/04 02:55:58;;;;;;;6.22;1.30;;;15.50;99.90;;;;;;5069940;28;20044;-68
2023/08/04 02:58:25;;;;;;;4.63;1.05;;;15.50;99.90;;;;;;5069592;28;20048;-67
2023/08/04 03:00:51;;;;;;;6.10;1.20;;;15.50;99.90;;;;;;5070123;28;20045;-68
2023/08/04 03:03:20;;;;;;;6.53;1.42;;;15.50;99.90;;;;;;5068440;28;20094;-66
2023/08/04 03:05:46;;;;;;;6.25;1.48;;;15.40;99.90;;;;;;5070078;28;20036;-67
2023/08/04 03:08:12;;;;;;;4.68;1.33;;;15.50;99.90;;;;;;5070120;28;20086;-67
2023/08/04 03:10:42;;;;;;;3.60;1.42;;;15.50;99.90;;;;;;5069492;28;20048;-67
2023/08/04 03:13:08;;;;;;;5.40;1.27;;;15.40;99.90;;;;;;5069322;28;20051;-68
2023/08/04 03:15:34;;;;;;;3.97;1.20;;;15.50;99.90;;;;;;5069344;28;20045;-68
2023/08/04 03:18:00;;;;;;;5.63;1.75;;;15.40;99.90;;;;;;5070079;28;20036;-67
2023/08/04 03:20:27;;;;;;;4.78;1.30;;;15.50;99.90;;;;;;5069736;28;20054;-67
2023/08/04 03:22:52;;;;;;;4.20;1.10;;;15.40;99.90;;;;;;5069702;28;20047;-67
2023/08/04 03:25:18;;;;;;;3.58;1.10;;;15.40;99.90;;;;;;5069782;28;20044;-66
2023/08/04 03:27:43;;;;;;;5.93;1.20;;;15.40;99.90;;;;;;5069888;28;20063;-67
2023/08/04 03:30:09;;;;;;;3.97;1.20;;;15.40;99.90;;;;;;5068294;28;20048;-67
2023/08/04 03:32:35;;;;;;;4.95;1.50;;;15.40;99.90;;;;;;5069852;28;20399;-67
2023/08/04 03:35:01;;;;;;;5.45;1.40;;;15.30;99.90;;;;;;5069331;28;20071;-66
2023/08/04 03:37:26;;;;;;;4.15;1.50;;;15.30;99.90;;;;;;5069764;28;20678;-67
2023/08/04 03:39:52;;;;;;;4.97;1.60;;;15.40;99.90;;;;;;5068442;28;20575;-67
2023/08/04 03:42:17;;;;;;;7.60;1.52;;;15.40;99.90;;;;;;5067759;28;20052;-66
2023/08/04 03:44:43;;;;;;;6.93;1.55;;;15.30;99.90;;;;;;5069321;28;20051;-66
2023/08/04 03:47:09;;;;;;;7.32;1.90;;;15.30;99.90;;;;;;5067400;28;20056;-67
2023/08/04 03:49:34;;;;;;;8.15;1.70;;;15.30;99.90;;;;;;5069428;28;20041;-67
2023/08/04 03:52:00;;;;;;;5.07;1.70;;;15.30;99.90;;;;;;5069442;28;20039;-66
2023/08/04 03:54:25;;;;;;;3.55;1.67;;;15.30;99.90;;;;;;5067979;28;20133;-66
2023/08/04 03:56:51;;;;;;;6.15;1.60;;;15.30;99.90;;;;;;5069526;28;20040;-67
2023/08/04 03:59:17;;;;;;;4.95;1.80;;;15.30;99.90;;;;;;5069293;28;20040;-66
2023/08/04 04:01:42;;;;;;;6.07;1.90;;;15.30;99.90;;;;;;5068891;28;20048;-67
2023/08/04 04:04:08;;;;;;;9.40;1.83;;;15.30;99.90;;;;;;5069349;28;20040;-66
2023/08/04 04:06:33;;;;;;;5.90;1.52;;;15.30;99.90;;;;;;5069271;28;20060;-67
2023/08/04 04:08:59;;;;;;;5.65;1.70;;;15.30;99.90;;;;;;5069435;28;20144;-66
2023/08/04 04:11:24;;;;;;;4.47;1.52;;;15.30;99.90;;;;;;5067248;28;20051;-67
2023/08/04 04:13:50;;;;;;;5.63;1.42;;;15.30;99.90;;;;;;5068861;28;20110;-69
2023/08/04 04:16:16;;;;;;;6.78;1.60;;;15.30;99.90;;;;;;5072865;28;20833;-67
2023/08/04 04:18:41;;;;;;;4.60;1.45;;;15.30;99.90;;;;;;5072100;28;20095;-68
2023/08/04 04:21:07;;;;;;;4.00;1.80;;;15.30;99.90;;;;;;5073289;28;20042;-67
2023/08/04 04:23:32;;;;;;;4.13;1.30;;;15.30;99.90;;;;;;5072911;28;20079;-67
2023/08/04 04:25:58;;;;;;;3.45;1.33;;;15.30;99.90;;;;;;5072012;28;20757;-66
2023/08/04 04:28:24;;;;;;;5.45;1.70;;;15.40;99.90;;;;;;5073141;28;20041;-67
2023/08/04 04:30:50;;;;;;;5.95;1.60;;;15.30;99.90;;;;;;5072936;28;20063;-67
2023/08/04 04:33:15;;;;;;;6.55;1.75;;;15.30;99.90;;;;;;5071043;28;20055;-71
2023/08/04 04:35:48;;;;;;;4.47;1.40;;;15.30;99.90;;;;;;5072680;28;20083;-67
2023/08/04 04:38:14;;;;;;;4.60;1.70;;;15.20;99.90;;;;;;5066656;28;20044;-67
2023/08/04 04:40:39;;;;;;;5.22;1.52;;;15.30;99.90;;;;;;5072809;28;20044;-68
2023/08/04 04:43:05;;;;;;;4.57;1.70;;;15.30;99.90;;;;;;5072500;28;20066;-67
2023/08/04 04:45:30;;;;;;;3.38;1.60;;;15.30;99.90;;;;;;5072502;28;20036;-67
2023/08/04 04:47:56;;;;;;;5.20;1.80;;;15.40;99.90;;;;;;5072495;28;20045;-68
2023/08/04 04:50:21;;;;;;;6.88;2.03;;;15.30;99.90;;;;;;5071237;28;20475;-67
2023/08/04 04:52:47;;;;;;;9.63;1.95;;;15.40;99.90;;;;;;5072466;28;20139;-67
2023/08/04 04:55:13;;;;;;;4.38;1.33;;;15.40;99.90;;;;;;5070999;28;20040;-67
2023/08/04 04:57:40;;;;;;;12.27;1.30;;;15.40;99.90;;;;;;5072571;28;20437;-67
2023/08/04 05:00:06;;;;;;;5.00;1.73;;;15.40;99.90;;;;;;5072264;28;20049;-67
2023/08/04 05:02:32;;;;;;;5.75;1.52;;;15.40;99.90;;;;;;5072142;28;20029;-67
2023/08/04 05:04:57;;;;;;;7.57;1.38;;;15.50;99.90;;;;;;5071325;28;20045;-67
2023/08/04 05:07:23;;;;;;;4.95;1.75;;;15.50;99.90;;;;;;5072489;28;20548;-67
2023/08/04 05:09:49;;;;;;;3.67;1.35;;;15.50;99.90;;;;;;5072416;28;20052;-71
2023/08/04 05:12:15;;;;;;;6.13;1.70;;;15.50;99.90;;;;;;5071879;28;20398;-67
2023/08/04 05:14:40;;;;;;;4.93;1.70;;;15.60;99.90;;;;;;5071099;28;20083;-66
2023/08/04 05:17:06;;;;;;;5.38;1.50;;;15.60;99.90;;;;;;5072005;28;20487;-67
2023/08/04 05:19:32;;;;;;;2.28;1.60;;;15.60;99.90;;;;;;5070588;28;20115;-67
2023/08/04 05:21:57;;;;;;;7.13;1.90;;;15.60;99.90;;;;;;5072372;28;20036;-67
2023/08/04 05:24:23;;;;;;;4.30;1.77;;;15.60;99.90;;;;;;5071553;28;20048;-67
2023/08/04 05:26:49;;;;;;;3.80;1.70;;;15.60;99.90;;;;;;5070502;28;20053;-66
2023/08/04 05:29:14;;;;;;;5.95;1.73;;;15.70;99.90;;;;;;5072023;28;20052;-66
2023/08/04 05:31:40;;;;;;;7.53;2.00;;;15.70;99.90;;;;;;5070764;28;20467;-67
2023/08/04 05:34:05;;;;;;;7.40;2.30;;;15.80;99.90;;;;;;5071942;28;20044;-67
2023/08/04 05:36:31;;;;;;;3.78;1.77;;;15.80;99.90;;;;;;5071966;28;20083;-66
2023/08/04 05:38:56;;;;;;;5.15;2.00;;;15.80;99.90;;;;;;5071716;28;20381;-66
2023/08/04 05:41:22;;;;;;;6.68;2.00;;;15.90;99.90;;;;;;5071701;28;20048;-67
2023/08/04 05:43:48;;;;;;;3.63;1.98;;;15.90;99.90;;;;;;5071493;28;20036;-67
2023/08/04 05:46:15;;;;;;;3.67;1.65;;;15.90;99.90;;;;;;5071385;28;20041;-67
2023/08/04 05:48:41;;;;;;;7.18;2.25;;;16.00;99.90;;;;;;5071260;28;20118;-66
2023/08/04 05:51:07;;;;;;;6.90;2.35;;;16.00;99.90;;;;;;5070052;28;20076;-66
2023/08/04 05:53:33;;;;;;;5.30;2.00;;;16.10;99.90;;;;;;5071468;28;20060;-66
2023/08/04 05:55:58;;;;;;;5.35;2.03;;;16.10;99.90;;;;;;5071521;28;20125;-67
2023/08/04 05:58:24;;;;;;;8.23;2.42;;;16.10;99.90;;;;;;5071090;28;20051;-67
2023/08/04 06:00:50;;;;;;;6.03;2.33;;;16.10;99.90;;;;;;5071485;28;20040;-67
2023/08/04 06:03:15;;;;;;;4.47;2.28;;;16.20;99.90;;;;;;5071249;28;20123;-67
2023/08/04 06:05:42;;;;;;;6.10;2.13;;;16.20;99.90;;;;;;5071212;28;20037;-67
2023/08/04 06:08:08;;;;;;;4.22;2.13;;;16.30;99.90;;;;;;5071294;28;20112;-67
2023/08/04 06:10:34;;;;;;;8.68;2.33;;;16.30;99.90;;;;;;5070837;28;20131;-67
2023/08/04 06:13:01;;;;;;;6.68;2.90;;;16.40;99.90;;;;;;5069430;28;20199;-67
2023/08/04 06:15:26;;;;;;;7.78;3.20;;;16.40;99.90;;;;;;5069667;28;20064;-67
2023/08/04 06:17:52;;;;;;;10.38;3.20;;;16.40;99.90;;;;;;5069681;28;20036;-66
2023/08/04 06:20:17;;;;;;;8.25;3.30;;;16.40;99.90;;;;;;5070636;28;20041;-68
2023/08/04 06:22:47;;;;;;;7.15;3.40;;;16.50;99.90;;;;;;5069630;28;20051;-67
2023/08/04 06:25:14;;;;;;;7.10;2.90;;;16.50;99.90;;;;;;5071151;28;20049;-66
2023/08/04 06:27:40;;;;;;;8.13;2.70;;;16.60;99.90;;;;;;5070731;28;20430;-67
2023/08/04 06:30:07;;;;;;;7.10;2.50;;;16.60;99.90;;;;;;5069552;28;20087;-67
2023/08/04 06:32:32;;;;;;;8.00;2.72;;;16.70;99.90;;;;;;5069558;28;20079;-66
2023/08/04 06:34:58;;;;;;;5.43;2.53;;;16.70;99.90;;;;;;5070558;28;20094;-68
2023/08/04 06:37:24;;;;;;;6.07;2.35;;;16.70;99.90;;;;;;5068368;28;20076;-67
2023/08/04 06:39:50;;;;;;;7.38;2.20;;;16.80;99.90;;;;;;5070605;28;20139;-67
2023/08/04 06:42:19;;;;;;;6.63;1.95;;;16.80;99.90;;;;;;5070098;28;20119;-68
2023/08/04 06:44:46;;;;;;;4.93;2.05;;;16.80;99.90;;;;;;5070491;28;20407;-67
2023/08/04 06:47:12;;;;;;;9.30;2.30;;;16.90;99.90;;;;;;5069787;28;20078;-67
2023/08/04 06:49:38;;;;;;;6.25;2.50;;;17.00;99.90;;;;;;5070298;28;20040;-67
2023/08/04 06:52:05;;;;;;;6.47;2.00;;;17.00;99.90;;;;;;5068533;28;20063;-67
2023/08/04 06:54:30;;;;;;;6.60;1.90;;;17.10;99.90;;;;;;5068771;28;20495;-67
2023/08/04 06:56:56;;;;;;;6.93;1.80;;;17.10;99.90;;;;;;5070417;28;20052;-67
2023/08/04 06:59:22;;;;;;;9.77;2.20;;;17.20;99.90;;;;;;5070081;28;20059;-66
2023/08/04 07:01:47;;;;;;;5.10;2.10;;;17.20;99.90;;;;;;5069873;28;20492;-66
2023/08/04 07:04:13;;;;;;;5.22;1.73;;;17.30;99.90;;;;;;5069304;28;20080;-66
2023/08/04 07:06:38;;;;;;;9.57;2.03;;;17.30;99.90;;;;;;5069957;28;20128;-67
2023/08/04 07:09:04;;;;;;;12.45;2.88;;;17.30;99.90;;;;;;5068948;28;20127;-67
2023/08/04 07:11:30;;;;;;;5.50;1.75;;;17.40;99.90;;;;;;5068857;28;20048;-66
2023/08/04 07:13:55;;;;;;;4.50;1.95;;;17.40;99.90;;;;;;5069985;28;20132;-68
2023/08/04 07:16:21;;;;;;;6.82;1.73;;;17.40;99.90;;;;;;5069983;28;20058;-67
2023/08/04 07:18:47;;;;;;;10.80;1.73;;;17.40;99.90;;;;;;5066409;28;20127;-67
2023/08/04 07:21:14;;;;;;;3.47;1.33;;;17.40;99.90;;;;;;5069845;28;20123;-67
2023/08/04 07:23:41;;;;;;;4.95;1.58;;;17.40;99.90;;;;;;5069457;28;20491;-67
2023/08/04 07:26:08;;;;;;;9.27;1.80;;;17.50;99.90;;;;;;5068321;28;20048;-67
2023/08/04 07:28:34;;;;;;;9.00;2.15;;;17.50;99.90;;;;;;5070220;28;20076;-68
2023/08/04 07:31:08;;;;;;;6.13;1.50;;;17.50;99.90;;;;;;5061893;28;20028;-67
2023/08/04 07:33:34;;;;;;;5.15;1.70;;;17.70;99.90;;;;;;5069751;28;20586;-67
2023/08/04 07:36:00;;;;;;;10.45;2.05;;;17.70;99.90;;;;;;5070311;28;20063;-67
2023/08/04 07:38:29;;;;;;;9.73;1.23;;;17.80;99.90;;;;;;5069664;28;20039;-68
2023/08/04 07:40:56;;;;;;;7.20;1.40;;;17.80;99.90;;;;;;5068138;28;20102;-66
2023/08/04 07:43:22;;;;;;;10.15;1.90;;;17.80;99.90;;;;;;5070029;28;20053;-67
2023/08/04 07:45:48;;;;;;;5.20;1.40;;;17.80;99.90;;;;;;5070127;28;20051;-67
2023/08/04 07:48:13;;;;;;;6.60;1.48;;;17.90;99.90;;;;;;5069529;28;20052;-68
2023/08/04 07:50:41;;;;;;;7.15;1.60;;;17.90;99.90;;;;;;5068401;28;20044;-69
2023/08/04 07:53:07;;;;;;;10.10;1.70;;;17.80;99.90;;;;;;5068983;28;20060;-68
2023/08/04 07:55:34;;;;;;;7.93;1.60;;;17.90;99.90;;;;;;5069852;28;20464;-67
2023/08/04 07:58:00;;;;;;;15.68;1.85;;;17.90;99.90;;;;;;5069729;28;20503;-68
2023/08/04 08:00:26;;;;;;;9.35;1.92;;;17.80;99.90;;;;;;5068346;28;20051;-68
2023/08/04 08:02:52;;;;;;;6.65;1.67;;;17.90;99.90;;;;;;5069042;28;20453;-68
2023/08/04 08:05:17;;;;;;;6.70;1.48;;;17.80;99.90;;;;;;5069808;28;20045;-67
2023/08/04 08:07:43;;;;;;;6.38;1.55;;;17.90;99.90;;;;;;5069976;28;20064;-66
2023/08/04 08:10:09;;;;;;;4.57;1.17;;;17.90;99.90;;;;;;5069704;28;20052;-67
2023/08/04 08:12:35;;;;;;;7.13;1.65;;;18.00;99.90;;;;;;5069806;28;20094;-68
2023/08/04 08:15:00;;;;;;;12.90;2.03;;;18.10;99.90;;;;;;5070067;28;20407;-67
2023/08/04 08:17:26;;;;;;;6.43;1.60;;;18.20;99.90;;;;;;5069890;28;20064;-68
2023/08/04 08:19:51;;;;;;;11.50;1.52;;;18.30;99.90;;;;;;5069686;28;20047;-68
2023/08/04 08:22:17;;;;;;;5.60;1.30;;;18.40;99.90;;;;;;5068888;28;20500;-67
2023/08/04 08:24:43;;;;;;;6.30;1.25;;;18.70;99.90;;;;;;5069570;28;20483;-68
2023/08/04 08:27:08;;;;;;;12.13;2.17;;;18.80;99.90;;;;;;5069931;28;20059;-69
2023/08/04 08:29:39;;;;;;;6.40;1.73;;;18.90;99.90;;;;;;5069854;28;20037;-67
2023/08/04 08:32:05;;;;;;;9.75;1.80;;;18.90;99.90;;;;;;5062183;28;20052;-68
2023/08/04 08:34:31;;;;;;;6.90;1.60;;;18.90;99.90;;;;;;5069965;28;20388;-67
2023/08/04 08:36:57;;;;;;;6.85;2.15;;;19.00;99.90;;;;;;5069655;28;20119;-67
2023/08/04 08:39:23;;;;;;;10.27;1.80;;;19.10;99.90;;;;;;5069200;28;20097;-67
2023/08/04 08:41:48;;;;;;;7.75;1.40;;;19.20;99.90;;;;;;5069756;28;20088;-67
2023/08/04 08:44:14;;;;;;;5.50;1.20;;;19.20;99.90;;;;;;5051932;28;20053;-68
2023/08/04 08:46:40;;;;;;;4.53;1.20;;;19.10;99.90;;;;;;5067544;28;20123;-67
2023/08/04 08:49:10;;;;;;;9.18;1.58;;;19.10;99.90;;;;;;5068411;28;20373;-67
2023/08/04 08:51:40;;;;;;;5.20;1.42;;;19.00;99.90;;;;;;5069786;28;20129;-69
2023/08/04 08:54:06;;;;;;;7.40;1.10;;;19.00;99.90;;;;;;5069014;28;20069;-67
2023/08/04 08:56:34;;;;;;;6.25;1.25;;;18.90;99.90;;;;;;5069643;28;20045;-68
2023/08/04 08:59:01;;;;;;;5.10;1.10;;;18.90;99.90;;;;;;5068320;28;20434;-68
2023/08/04 09:01:26;;;;;;;8.98;1.20;;;19.00;99.90;;;;;;5072773;28;20044;-67
2023/08/04 09:03:53;;;;;;;7.50;1.40;;;19.10;99.90;;;;;;5071598;28;20051;-68
2023/08/04 09:06:18;;;;;;;8.65;2.00;;;19.20;99.90;;;;;;5072841;28;20090;-66
2023/08/04 09:08:44;;;;;;;6.53;1.15;;;19.20;99.90;;;;;;5073307;28;20040;-68
2023/08/04 09:11:11;;;;;;;7.50;1.60;;;19.20;99.90;;;;;;5072781;28;20042;-69
2023/08/04 09:13:42;;;;;;;11.32;1.50;;;19.20;99.90;;;;;;5072969;28;20051;-67
2023/08/04 09:16:11;;;;;;;7.07;2.05;;;19.30;99.90;;;;;;5071930;28;20043;-69
2023/08/04 09:18:39;;;;;;;6.72;1.08;;;19.40;99.90;;;;;;5072650;28;20052;-68
2023/08/04 09:21:07;;;;;;;5.72;1.83;;;19.50;99.90;;;;;;5073093;28;20041;-69
2023/08/04 09:23:41;;;;;;;6.30;1.25;;;19.40;99.90;;;;;;5072435;28;20044;-69
2023/08/04 09:26:07;;;;;;;5.18;1.00;;;19.30;99.90;;;;;;5072375;28;20045;-66
2023/08/04 09:28:33;;;;;;;6.75;1.10;;;19.40;99.90;;;;;;5072506;28;20045;-68
2023/08/04 09:31:10;;;;;;;9.88;1.40;;;19.60;99.90;;;;;;5071227;28;20488;-70
2023/08/04 09:33:44;;;;;;;5.07;0.90;;;19.70;99.90;;;;;;5072334;28;20045;-69
2023/08/04 09:36:12;;;;;;;8.25;1.52;;;19.70;99.90;;;;;;5065195;28;20499;-68
2023/08/04 09:38:40;;;;;;;2.75;0.90;;;19.60;99.90;;;;;;5072614;28;20052;-69
2023/08/04 09:41:11;;;;;;;6.82;0.93;;;19.80;99.90;;;;;;5070913;28;20078;-69
2023/08/04 09:43:47;;;;;;;4.65;1.10;;;19.70;99.90;;;;;;5072453;28;20123;-70
2023/08/04 09:46:19;;;;;;;5.05;1.13;;;19.60;99.90;;;;;;5064050;28;20090;-69
2023/08/04 09:48:44;;;;;;;5.00;1.10;;;19.60;99.90;;;;;;5071267;28;20058;-68
2023/08/04 09:51:14;;;;;;;4.55;0.98;;;19.90;99.90;;;;;;5070756;28;20506;-66
2023/08/04 09:53:54;;;;;;;7.95;1.20;;;20.30;99.90;;;;;;5072026;28;20095;-68
2023/08/04 09:56:23;;;;;;;9.00;1.90;;;20.50;99.90;;;;;;5071760;28;20122;-68
2023/08/04 09:58:49;;;;;;;5.28;1.20;;;20.40;99.90;;;;;;5072337;28;20139;-66
2023/08/04 10:01:18;;;;;;;7.15;2.10;;;20.40;99.90;;;;;;5072349;28;20139;-67
2023/08/04 10:03:51;;;;;;;9.40;1.55;;;20.40;99.90;;;;;;5072130;28;20044;-68
2023/08/04 10:06:17;;;;;;;8.77;1.85;;;20.70;99.90;;;;;;5070739;28;20448;-69
2023/08/04 10:08:43;;;;;;;9.05;1.20;;;20.60;99.90;;;;;;5072094;28;20044;-68
2023/08/04 10:11:09;;;;;;;5.72;1.52;;;20.40;99.90;;;;;;5071672;28;20037;-69
2023/08/04 10:13:38;;;;;;;7.82;1.15;;;20.40;99.90;;;;;;5069926;28;20596;-69
2023/08/04 10:16:06;;;;;;;10.68;2.13;;;20.50;99.90;;;;;;5071797;28;20090;-69
2023/08/04 10:18:52;;;;;;;9.95;1.63;;;20.40;99.90;;;;;;5071576;28;20491;-70
2023/08/04 10:21:25;;;;;;;5.47;1.67;;;20.20;99.90;;;;;;5071600;28;20036;-69
2023/08/04 10:23:54;;;;;;;9.10;1.38;;;20.30;99.90;;;;;;5061968;28;20061;-69
2023/08/04 10:26:20;;;;;;;4.18;1.08;;;20.70;99.90;;;;;;5070324;28;20049;-68
2023/08/04 10:29:04;;;;;;;7.38;1.13;;;20.80;99.90;;;;;;5069999;28;20052;-69
2023/08/04 10:31:50;;;;;;;5.60;0.97;;;20.80;99.90;;;;;;5071682;28;20052;-68
2023/08/04 10:34:29;;;;;;;5.35;1.45;;;20.70;99.90;;;;;;5065157;28;20404;-68
2023/08/04 10:37:04;;;;;;;5.93;1.30;;;20.50;99.90;;;;;;5070032;28;20197;-68
2023/08/04 10:39:33;;;;;;;7.00;1.20;;;20.50;99.90;;;;;;5071453;28;20052;-68
2023/08/04 10:42:00;;;;;;;6.47;1.55;;;20.50;99.90;;;;;;5069880;28;20486;-67
2023/08/04 10:44:55;;;;;;;5.40;1.30;;;20.30;99.90;;;;;;5070923;28;20044;-67
2023/08/04 10:47:28;;;;;;;;;;;20.40;99.90;;;;;;5063558;28;20051;-68
2023/08/04 10:49:55;;;;;;;5.60;0.90;;;20.50;99.90;;;;;;5071038;28;19973;-68
2023/08/04 10:52:22;;;;;;;3.72;0.85;;;20.60;99.90;;;;;;5071185;28;20966;-68
2023/08/04 10:54:48;;;;;;;5.53;0.98;;;20.50;99.90;;;;;;5070523;28;20109;-68
2023/08/04 10:57:27;;;;;;;4.38;1.23;;;20.50;99.90;;;;;;5070724;28;20561;-68
2023/08/04 10:59:54;;;;;;;4.85;1.00;;;20.60;99.90;;;;;;5069148;28;20097;-67
2023/08/04 11:02:24;;;;;;;11.02;1.65;;;20.50;99.90;;;;;;5070740;28;20040;-69
2023/08/04 11:04:51;;;;;;;3.47;0.90;;;20.50;99.90;;;;;;5069334;28;20050;-69
2023/08/04 11:07:18;;;;;;;5.25;0.68;;;20.60;99.90;;;;;;5069685;28;20066;-70
2023/08/04 11:09:48;;;;;;;6.05;1.48;;;20.50;99.90;;;;;;5069477;28;20071;-69
2023/08/04 11:12:15;;;;;;;2.38;0.75;;;20.40;99.90;;;;;;5068975;28;20048;-68
2023/08/04 11:14:41;;;;;;;6.95;1.00;;;20.60;99.90;;;;;;5067191;28;20127;-69
2023/08/04 11:17:18;;;;;;;7.88;1.15;;;21.10;99.90;;;;;;5070412;28;20376;-69
2023/08/04 11:19:46;;;;;;;4.78;0.98;;;20.80;99.90;;;;;;5068794;28;20048;-66
2023/08/04 11:22:13;;;;;;;3.13;0.88;;;20.70;99.90;;;;;;5069859;28;20123;-67
2023/08/04 11:24:39;;;;;;;6.05;1.00;;;20.50;99.90;;;;;;5069148;28;20052;-68
2023/08/04 11:27:05;;;;;;;4.07;0.90;;;20.50;99.90;;;;;;5070515;28;20086;-67
2023/08/04 11:29:31;;;;;;;3.05;0.57;;;20.40;99.90;;;;;;5070025;28;20055;-68
2023/08/04 11:31:57;;;;;;;2.22;0.90;;;20.20;99.90;;;;;;5060475;28;20483;-69
2023/08/04 11:34:22;;;;;;;4.47;0.63;;;20.10;99.90;;;;;;5070317;28;20048;-68
2023/08/04 11:36:49;;;;;;;4.55;0.60;;;20.00;99.90;;;;;;5070504;28;20159;-66
2023/08/04 11:39:15;;;;;;;2.35;0.73;;;20.40;99.90;;;;;;5069068;28;20059;-67
2023/08/04 11:41:43;;;;;;;2.40;0.60;;;20.70;99.90;;;;;;5069323;28;20041;-68
2023/08/04 11:44:09;;;;;;;3.28;0.60;;;20.80;99.90;;;;;;5070131;28;20043;-68
2023/08/04 11:46:35;;;;;;;2.33;0.77;;;20.90;99.90;;;;;;5070240;28;20040;-67
2023/08/04 11:49:06;;;;;;;4.25;0.82;;;21.10;99.90;;;;;;5070224;28;20041;-69
2023/08/04 11:51:32;;;;;;;5.82;0.80;;;21.10;99.90;;;;;;5068702;28;20059;-69
2023/08/04 11:53:58;;;;;;;4.40;0.90;;;21.00;99.90;;;;;;5069837;28;20056;-67
2023/08/04 11:56:24;;;;;;;2.42;0.93;;;21.00;99.90;;;;;;5069045;28;20399;-68
2023/08/04 11:58:55;;;;;;;4.57;0.80;;;21.00;99.90;;;;;;5070263;28;20048;-70
2023/08/04 12:01:28;;;;;;;3.70;0.80;;;21.40;99.90;;;;;;5069225;28;20051;-67
2023/08/04 12:03:54;;;;;;;4.63;0.80;;;21.40;99.90;;;;;;5070105;28;20063;-71
2023/08/04 12:06:21;;;;;;;4.93;1.10;;;21.40;99.90;;;;;;5068736;28;20124;-68
2023/08/04 12:08:52;;;;;;;5.72;1.40;;;21.40;99.90;;;;;;5068255;28;20045;-66
2023/08/04 12:11:19;;;;;;;5.05;1.20;;;21.30;99.90;;;;;;5068328;28;20045;-68
2023/08/04 12:13:45;;;;;;;5.22;1.25;;;21.20;99.90;;;;;;5069814;28;20495;-68
2023/08/04 12:16:12;;;;;;;9.27;1.30;;;21.20;99.90;;;;;;5069386;28;20066;-68
2023/08/04 12:18:41;;;;;;;4.53;1.30;;;20.80;99.90;;;;;;5070167;28;20084;-67
2023/08/04 12:21:10;;;;;;;6.20;1.13;;;21.00;99.90;;;;;;5070553;28;20039;-66
2023/08/04 12:23:37;;;;;;;6.80;1.42;;;21.10;99.90;;;;;;5070042;28;20033;-68
2023/08/04 12:26:04;;;;;;;4.18;1.20;;;21.00;99.90;;;;;;5068525;28;20074;-68
2023/08/04 12:28:30;;;;;;;4.80;1.13;;;21.10;99.90;;;;;;5070187;28;20037;-67
2023/08/04 12:30:55;;;;;;;5.78;0.98;;;21.30;99.90;;;;;;5069815;28;20032;-66
2023/08/04 12:33:21;;;;;;;5.45;1.73;;;21.40;99.90;;;;;;5068549;28;20044;-68
2023/08/04 12:35:46;;;;;;;3.42;1.13;;;21.50;99.90;;;;;;5071032;28;20544;-68
2023/08/04 12:38:12;;;;;;;4.68;1.10;;;21.50;99.90;;;;;;5073363;28;20483;-68
2023/08/04 12:40:38;;;;;;;7.75;1.27;;;21.60;99.90;;;;;;5073512;28;20040;-68
2023/08/04 12:43:04;;;;;;;3.10;0.80;;;21.70;99.90;;;;;;5073345;28;20049;-68